Time;durP1;ratioP1;P1;durP2;ratioP2;P2;SDS_P1;SDS_P2;PMS_P1;PMS_P2;Temp;Humidity;BMP_temperature;BMP_pressure;BME280_temperature;BME280_humidity;BME280_pressure;Samples;Min_cycle;Max_cycle;Signal;HPM_P1;HPM_P2
2022/02/27 00:01:09;;;;;;;28.52;16.95;;;;;;;;;;5053044;28;20032;-62
2022/02/27 00:03:35;;;;;;;29.35;18.63;;;;;;;;;;5054235;28;20059;-63
2022/02/27 00:06:00;;;;;;;25.48;16.58;;;;;;;;;;5054027;28;20044;-63
2022/02/27 00:08:25;;;;;;;22.60;16.15;;;;;;;;;;5054070;28;20024;-63
2022/02/27 00:10:51;;;;;;;28.88;16.08;;;;;;;;;;5053906;28;20106;-63
2022/02/27 00:13:16;;;;;;;22.38;16.05;;;;;;;;;;5053783;28;20439;-63
2022/02/27 00:15:42;;;;;;;27.10;17.67;;;;;;;;;;5054113;28;20025;-62
2022/02/27 00:18:07;;;;;;;25.50;17.00;;;;;;;;;;5053879;28;20531;-62
2022/02/27 00:20:33;;;;;;;25.75;16.48;;;;;;;;;;5054044;28;20373;-63
2022/02/27 00:22:58;;;;;;;25.67;17.15;;;;;;;;;;5053342;28;20020;-63
2022/02/27 00:25:25;;;;;;;27.17;17.80;;;;;;;;;;5053715;28;20017;-63
2022/02/27 00:27:50;;;;;;;25.80;17.23;;;;;;;;;;5052512;28;20154;-63
2022/02/27 00:30:19;;;;;;;27.48;17.92;;;;;;;;;;5052327;28;20404;-63
2022/02/27 00:32:44;;;;;;;27.42;17.40;;;;;;;;;;5053614;28;20018;-63
2022/02/27 00:35:10;;;;;;;27.42;18.10;;;;;;;;;;5053651;28;20464;-63
2022/02/27 00:37:35;;;;;;;24.50;17.67;;;;;;;;;;5051912;28;20017;-63
2022/02/27 00:40:01;;;;;;;26.92;18.08;;;;;;;;;;5052265;28;20472;-63
2022/02/27 00:42:27;;;;;;;28.23;17.77;;;;;;;;;;5052581;28;20021;-64
2022/02/27 00:44:52;;;;;;;28.20;17.10;;;;;;;;;;5052324;28;20071;-63
2022/02/27 00:47:20;;;;;;;28.00;17.73;;;;;;;;;;5052239;28;20021;-63
2022/02/27 00:49:46;;;;;;;25.90;17.20;;;;;;;;;;5052039;28;20160;-63
2022/02/27 00:52:11;;;;;;;25.92;16.55;;;;;;;;;;5052003;28;20033;-63
2022/02/27 00:54:37;;;;;;;24.77;16.55;;;;;;;;;;5052474;28;20124;-62
2022/02/27 00:57:03;;;;;;;25.33;17.50;;;;;;;;;;5051976;28;20473;-63
2022/02/27 00:59:28;;;;;;;27.25;17.20;;;;;;;;;;5053207;28;20044;-63
2022/02/27 01:01:53;;;;;;;29.50;17.83;;;;;;;;;;5052030;28;20473;-63
2022/02/27 01:04:19;;;;;;;27.70;17.20;;;;;;;;;;5053339;28;20496;-63
2022/02/27 01:06:46;;;;;;;24.80;16.52;;;;;;;;;;5053290;28;20531;-62
2022/02/27 01:09:12;;;;;;;27.75;17.08;;;;;;;;;;5053327;28;20033;-62
2022/02/27 01:11:37;;;;;;;26.38;17.23;;;;;;;;;;5035323;28;20025;-62
2022/02/27 01:14:07;;;;;;;27.23;17.52;;;;;;;;;;5052030;28;20039;-62
2022/02/27 01:16:33;;;;;;;28.88;18.10;;;;;;;;;;5051358;28;20029;-63
2022/02/27 01:19:01;;;;;;;27.45;18.42;;;;;;;;;;5051716;28;20373;-63
2022/02/27 01:21:26;;;;;;;25.10;17.63;;;;;;;;;;5051713;28;20473;-63
2022/02/27 01:23:52;;;;;;;24.98;16.88;;;;;;;;;;5051775;28;20056;-63
2022/02/27 01:26:17;;;;;;;24.48;17.33;;;;;;;;;;5051824;28;20025;-63
2022/02/27 01:28:43;;;;;;;23.02;17.25;;;;;;;;;;5051771;28;20017;-62
2022/02/27 01:31:08;;;;;;;26.48;18.50;;;;;;;;;;5052891;28;20090;-63
2022/02/27 01:33:34;;;;;;;24.23;18.15;;;;;;;;;;5051537;28;20426;-63
2022/02/27 01:35:59;;;;;;;26.42;17.88;;;;;;;;;;5051283;28;20056;-63
2022/02/27 01:38:25;;;;;;;28.20;18.60;;;;;;;;;;5051466;28;20380;-63
2022/02/27 01:40:51;;;;;;;27.80;18.73;;;;;;;;;;5051888;28;20037;-63
2022/02/27 01:43:17;;;;;;;28.45;19.40;;;;;;;;;;5052727;28;20021;-62
2022/02/27 01:45:42;;;;;;;27.90;18.10;;;;;;;;;;5051422;28;20040;-62
2022/02/27 01:48:08;;;;;;;25.40;18.92;;;;;;;;;;5052314;28;20037;-62
2022/02/27 01:50:33;;;;;;;28.88;19.48;;;;;;;;;;5055579;28;20499;-62
2022/02/27 01:52:59;;;;;;;26.88;18.10;;;;;;;;;;5056454;28;20024;-62
2022/02/27 01:55:24;;;;;;;29.27;19.02;;;;;;;;;;5056315;28;20067;-62
2022/02/27 01:57:50;;;;;;;29.95;19.02;;;;;;;;;;5056481;28;20021;-61
2022/02/27 02:00:16;;;;;;;30.67;20.85;;;;;;;;;;5054920;28;20059;-62
2022/02/27 02:02:43;;;;;;;32.50;22.88;;;;;;;;;;5056293;28;20036;-62
2022/02/27 02:05:09;;;;;;;31.73;23.70;;;;;;;;;;5055069;28;20071;-62
2022/02/27 02:07:34;;;;;;;33.75;24.02;;;;;;;;;;5055310;28;20025;-62
2022/02/27 02:10:00;;;;;;;32.63;22.27;;;;;;;;;;5055568;28;20020;-62
2022/02/27 02:12:26;;;;;;;33.47;22.38;;;;;;;;;;5055952;28;20017;-62
2022/02/27 02:14:54;;;;;;;32.80;23.05;;;;;;;;;;5055325;28;20029;-62
2022/02/27 02:17:19;;;;;;;31.00;20.10;;;;;;;;;;5056123;28;20032;-62
2022/02/27 02:19:50;;;;;;;30.10;23.00;;;;;;;;;;5054782;28;20029;-62
2022/02/27 02:22:16;;;;;;;31.88;21.33;;;;;;;;;;5054871;28;20078;-62
2022/02/27 02:24:42;;;;;;;32.63;22.90;;;;;;;;;;5055960;28;20059;-61
2022/02/27 02:27:08;;;;;;;34.95;23.30;;;;;;;;;;5054879;28;20492;-62
2022/02/27 02:29:34;;;;;;;30.38;20.88;;;;;;;;;;5054924;28;20044;-62
2022/02/27 02:32:02;;;;;;;27.63;19.63;;;;;;;;;;5054862;28;20027;-62
2022/02/27 02:34:27;;;;;;;30.90;21.02;;;;;;;;;;5054750;28;20502;-62
2022/02/27 02:36:54;;;;;;;33.13;20.88;;;;;;;;;;5055740;28;20107;-62
2022/02/27 02:39:20;;;;;;;35.17;22.20;;;;;;;;;;5054255;28;20124;-62
2022/02/27 02:41:48;;;;;;;29.27;20.60;;;;;;;;;;5054401;28;20037;-62
2022/02/27 02:44:20;;;;;;;32.33;21.33;;;;;;;;;;5054315;28;20112;-61
2022/02/27 02:46:46;;;;;;;31.05;20.67;;;;;;;;;;5054246;28;20055;-63
2022/02/27 02:49:12;;;;;;;30.08;20.63;;;;;;;;;;5055114;28;20048;-63
2022/02/27 02:51:47;;;;;;;29.05;20.27;;;;;;;;;;5054503;28;20028;-63
2022/02/27 02:54:12;;;;;;;31.52;19.90;;;;;;;;;;5054668;28;20084;-62
2022/02/27 02:56:38;;;;;;;27.95;19.70;;;;;;;;;;5055461;28;20027;-62
2022/02/27 02:59:04;;;;;;;31.13;21.42;;;;;;;;;;5054317;28;20044;-63
2022/02/27 03:01:29;;;;;;;29.38;20.70;;;;;;;;;;5054449;28;20044;-63
2022/02/27 03:03:55;;;;;;;29.48;19.75;;;;;;;;;;5055228;28;20079;-64
2022/02/27 03:06:20;;;;;;;29.60;19.65;;;;;;;;;;5055061;28;20516;-61
2022/02/27 03:08:47;;;;;;;30.00;19.73;;;;;;;;;;5055392;28;20029;-62
2022/02/27 03:11:14;;;;;;;33.35;20.30;;;;;;;;;;5055509;28;20106;-63
2022/02/27 03:13:39;;;;;;;30.65;21.05;;;;;;;;;;5053983;28;20092;-61
2022/02/27 03:16:05;;;;;;;30.13;21.35;;;;;;;;;;5053883;28;20477;-61
2022/02/27 03:18:31;;;;;;;32.88;22.38;;;;;;;;;;5055071;28;20111;-62
2022/02/27 03:20:59;;;;;;;27.80;19.83;;;;;;;;;;5054907;28;20017;-62
2022/02/27 03:23:25;;;;;;;32.63;21.55;;;;;;;;;;5055090;28;20115;-63
2022/02/27 03:25:52;;;;;;;35.10;23.27;;;;;;;;;;5053607;28;20118;-63
2022/02/27 03:28:17;;;;;;;31.30;22.05;;;;;;;;;;5054894;28;20025;-63
2022/02/27 03:30:43;;;;;;;30.98;21.27;;;;;;;;;;5054976;28;20170;-63
2022/02/27 03:33:08;;;;;;;31.80;20.85;;;;;;;;;;5054763;28;20063;-63
2022/02/27 03:35:34;;;;;;;30.08;19.60;;;;;;;;;;5054778;28;20056;-62
2022/02/27 03:38:00;;;;;;;31.40;20.13;;;;;;;;;;5053559;28;20064;-62
2022/02/27 03:40:26;;;;;;;31.33;20.48;;;;;;;;;;5054455;28;20017;-62
2022/02/27 03:42:52;;;;;;;30.38;19.55;;;;;;;;;;5054342;28;20021;-62
2022/02/27 03:45:17;;;;;;;29.92;20.77;;;;;;;;;;5054470;28;20019;-62
2022/02/27 03:47:42;;;;;;;32.72;21.77;;;;;;;;;;5052894;28;20518;-62
2022/02/27 03:50:11;;;;;;;31.35;21.38;;;;;;;;;;5054309;28;20260;-62
2022/02/27 03:52:36;;;;;;;32.83;21.60;;;;;;;;;;5054611;28;20043;-62
2022/02/27 03:55:05;;;;;;;35.10;21.75;;;;;;;;;;5054484;28;20108;-62
2022/02/27 03:57:31;;;;;;;38.50;23.02;;;;;;;;;;5054436;28;20033;-63
2022/02/27 03:59:56;;;;;;;31.77;21.33;;;;;;;;;;5054109;28;20028;-63
2022/02/27 04:02:22;;;;;;;32.60;21.92;;;;;;;;;;5054118;28;20039;-63
2022/02/27 04:04:47;;;;;;;29.83;20.55;;;;;;;;;;5052416;28;20021;-62
2022/02/27 04:07:13;;;;;;;32.65;21.35;;;;;;;;;;5054042;28;20464;-61
2022/02/27 04:09:38;;;;;;;32.72;22.13;;;;;;;;;;5052715;28;20083;-62
2022/02/27 04:12:03;;;;;;;36.67;23.38;;;;;;;;;;5054086;28;20021;-60
2022/02/27 04:14:29;;;;;;;33.20;22.45;;;;;;;;;;5054083;28;20452;-60
2022/02/27 04:16:55;;;;;;;34.55;22.90;;;;;;;;;;5052522;28;20126;-60
2022/02/27 04:19:20;;;;;;;34.60;22.20;;;;;;;;;;5053750;28;20063;-61
2022/02/27 04:21:47;;;;;;;32.55;21.73;;;;;;;;;;5052595;28;20095;-60
2022/02/27 04:24:12;;;;;;;31.23;22.05;;;;;;;;;;5052535;28;20013;-61
2022/02/27 04:26:38;;;;;;;30.45;21.15;;;;;;;;;;5053718;28;20555;-61
2022/02/27 04:29:03;;;;;;;29.95;21.52;;;;;;;;;;5053966;28;20021;-61
2022/02/27 04:31:29;;;;;;;31.90;21.90;;;;;;;;;;5053748;28;20040;-61
2022/02/27 04:33:54;;;;;;;33.90;22.52;;;;;;;;;;5053837;28;20052;-61
2022/02/27 04:36:19;;;;;;;54.10;31.75;;;;;;;;;;5052316;28;20045;-63
2022/02/27 04:38:45;;;;;;;55.35;34.03;;;;;;;;;;5053525;28;20013;-61
2022/02/27 04:41:11;;;;;;;36.47;24.73;;;;;;;;;;5053386;28;20051;-61
2022/02/27 04:43:37;;;;;;;32.53;23.77;;;;;;;;;;5053585;28;20021;-61
2022/02/27 04:46:03;;;;;;;37.42;25.70;;;;;;;;;;5053813;28;20064;-60
2022/02/27 04:48:28;;;;;;;35.97;24.98;;;;;;;;;;5051663;28;20079;-60
2022/02/27 04:50:55;;;;;;;31.90;21.38;;;;;;;;;;5053242;28;20497;-60
2022/02/27 04:53:21;;;;;;;32.75;22.30;;;;;;;;;;5053219;28;20025;-60
2022/02/27 04:55:46;;;;;;;30.05;20.63;;;;;;;;;;5053229;28;20119;-60
2022/02/27 04:58:12;;;;;;;31.50;20.92;;;;;;;;;;5053354;28;20444;-60
2022/02/27 05:00:37;;;;;;;38.90;27.10;;;;;;;;;;5052708;28;20029;-60
2022/02/27 05:03:03;;;;;;;27.95;21.00;;;;;;;;;;5053114;28;20022;-61
2022/02/27 05:05:28;;;;;;;30.25;20.40;;;;;;;;;;5053125;28;20033;-60
2022/02/27 05:07:54;;;;;;;29.63;19.60;;;;;;;;;;5053296;28;20025;-61
2022/02/27 05:10:19;;;;;;;31.83;20.25;;;;;;;;;;5053286;28;20029;-61
2022/02/27 05:12:44;;;;;;;30.15;21.02;;;;;;;;;;5052023;28;20039;-61
2022/02/27 05:15:10;;;;;;;30.17;20.58;;;;;;;;;;5053149;28;20529;-61
2022/02/27 05:17:36;;;;;;;33.35;21.13;;;;;;;;;;5053087;28;20021;-60
2022/02/27 05:20:02;;;;;;;27.25;18.45;;;;;;;;;;5052985;28;20476;-61
2022/02/27 05:22:28;;;;;;;28.00;18.45;;;;;;;;;;5053057;28;20421;-61
2022/02/27 05:24:53;;;;;;;25.00;18.52;;;;;;;;;;5056203;28;20091;-61
2022/02/27 05:27:19;;;;;;;27.42;18.40;;;;;;;;;;5057132;28;20052;-60
2022/02/27 05:29:44;;;;;;;25.63;17.75;;;;;;;;;;5057178;28;20041;-60
2022/02/27 05:32:10;;;;;;;25.70;17.73;;;;;;;;;;5055587;28;20055;-60
2022/02/27 05:34:35;;;;;;;25.92;18.65;;;;;;;;;;5056922;28;20048;-61
2022/02/27 05:37:01;;;;;;;24.20;18.35;;;;;;;;;;5056945;28;20033;-60
2022/02/27 05:39:26;;;;;;;23.70;17.08;;;;;;;;;;5055217;28;20045;-60
2022/02/27 05:41:51;;;;;;;23.65;16.55;;;;;;;;;;5055412;28;20021;-60
2022/02/27 05:44:17;;;;;;;26.85;17.95;;;;;;;;;;5056495;28;20033;-60
2022/02/27 05:46:42;;;;;;;62.35;49.40;;;;;;;;;;5056591;28;20017;-61
2022/02/27 05:49:09;;;;;;;62.00;50.25;;;;;;;;;;5056223;28;20040;-60
2022/02/27 05:51:34;;;;;;;64.30;49.95;;;;;;;;;;5055525;28;20045;-61
2022/02/27 05:53:59;;;;;;;287.45;134.13;;;;;;;;;;5056620;28;20048;-61
2022/02/27 05:56:25;;;;;;;166.95;92.00;;;;;;;;;;5056672;28;20009;-61
2022/02/27 05:58:51;;;;;;;85.57;53.95;;;;;;;;;;5055432;28;20041;-61
2022/02/27 06:01:17;;;;;;;77.10;49.03;;;;;;;;;;5055311;28;20025;-60
2022/02/27 06:03:42;;;;;;;89.28;53.97;;;;;;;;;;5055077;28;20036;-60
2022/02/27 06:06:08;;;;;;;89.80;53.53;;;;;;;;;;5056420;28;20032;-60
2022/02/27 06:08:33;;;;;;;97.50;50.70;;;;;;;;;;5056065;28;20079;-61
2022/02/27 06:10:59;;;;;;;63.35;34.55;;;;;;;;;;5056275;28;20028;-60
2022/02/27 06:13:24;;;;;;;54.45;29.85;;;;;;;;;;5056417;28;20075;-61
2022/02/27 06:15:50;;;;;;;78.85;39.80;;;;;;;;;;5055140;28;20056;-61
2022/02/27 06:18:15;;;;;;;101.95;45.85;;;;;;;;;;5056490;28;20029;-61
2022/02/27 06:20:40;;;;;;;83.35;39.15;;;;;;;;;;5056073;28;20020;-60
2022/02/27 06:23:09;;;;;;;41.55;27.77;;;;;;;;;;5056342;28;20346;-60
2022/02/27 06:25:35;;;;;;;37.05;24.02;;;;;;;;;;5056216;28;20540;-60
2022/02/27 06:28:00;;;;;;;36.65;23.23;;;;;;;;;;5055952;28;20060;-62
2022/02/27 06:30:27;;;;;;;30.10;21.10;;;;;;;;;;5055594;28;20021;-61
2022/02/27 06:32:53;;;;;;;34.05;21.33;;;;;;;;;;5055669;28;20033;-61
2022/02/27 06:35:21;;;;;;;30.00;20.60;;;;;;;;;;5053314;28;20021;-63
2022/02/27 06:37:47;;;;;;;29.92;20.38;;;;;;;;;;5055745;28;20040;-61
2022/02/27 06:40:13;;;;;;;47.55;30.27;;;;;;;;;;5055488;28;20021;-63
2022/02/27 06:42:39;;;;;;;61.55;34.42;;;;;;;;;;5055638;28;20108;-62
2022/02/27 06:45:05;;;;;;;38.80;23.02;;;;;;;;;;5055728;28;20017;-62
2022/02/27 06:47:31;;;;;;;39.55;24.92;;;;;;;;;;5055703;28;20036;-62
2022/02/27 06:49:58;;;;;;;40.83;26.88;;;;;;;;;;5055245;28;20436;-63
2022/02/27 06:52:23;;;;;;;34.50;23.98;;;;;;;;;;5055634;28;20140;-62
2022/02/27 06:54:49;;;;;;;30.60;21.08;;;;;;;;;;5054333;28;20502;-62
2022/02/27 06:57:14;;;;;;;32.75;22.95;;;;;;;;;;5055534;28;20112;-62
2022/02/27 06:59:40;;;;;;;87.68;47.58;;;;;;;;;;5055278;28;20503;-63
2022/02/27 07:02:07;;;;;;;148.15;72.47;;;;;;;;;;5055449;28;20056;-62
2022/02/27 07:04:34;;;;;;;118.97;62.47;;;;;;;;;;5055549;28;20467;-62
2022/02/27 07:06:59;;;;;;;129.63;68.07;;;;;;;;;;5055410;28;20065;-63
2022/02/27 07:09:25;;;;;;;99.25;53.92;;;;;;;;;;5054043;28;20013;-62
2022/02/27 07:11:52;;;;;;;46.58;30.67;;;;;;;;;;5055301;28;20029;-62
2022/02/27 07:14:18;;;;;;;41.88;31.35;;;;;;;;;;5055117;28;20020;-62
2022/02/27 07:16:44;;;;;;;84.63;54.42;;;;;;;;;;5055198;28;20021;-62
2022/02/27 07:19:09;;;;;;;202.35;130.15;;;;;;;;;;5055364;28;20032;-63
2022/02/27 07:21:35;;;;;;;142.68;90.05;;;;;;;;;;5054718;28;20078;-63
2022/02/27 07:24:00;;;;;;;77.15;55.05;;;;;;;;;;5054747;28;20380;-62
2022/02/27 07:26:26;;;;;;;98.38;67.30;;;;;;;;;;5055111;28;20028;-62
2022/02/27 07:28:52;;;;;;;80.45;57.08;;;;;;;;;;5053637;28;20385;-63
2022/02/27 07:31:17;;;;;;;68.45;54.95;;;;;;;;;;5054678;28;20037;-62
2022/02/27 07:33:43;;;;;;;44.30;38.33;;;;;;;;;;5054494;28;20035;-63
2022/02/27 07:36:09;;;;;;;49.97;33.67;;;;;;;;;;5054404;28;20033;-63
2022/02/27 07:38:34;;;;;;;38.03;33.45;;;;;;;;;;5054486;28;20017;-62
2022/02/27 07:40:59;;;;;;;59.50;47.13;;;;;;;;;;5054392;28;20075;-63
2022/02/27 07:43:25;;;;;;;39.85;32.72;;;;;;;;;;5054155;28;20013;-63
2022/02/27 07:45:50;;;;;;;51.28;43.17;;;;;;;;;;5054351;28;20025;-63
2022/02/27 07:48:16;;;;;;;43.28;35.70;;;;;;;;;;5053711;28;20048;-63
2022/02/27 07:50:42;;;;;;;23.10;17.48;;;;;;;;;;5054511;28;20116;-63
2022/02/27 07:53:07;;;;;;;25.33;17.83;;;;;;;;;;5054362;28;20116;-63
2022/02/27 07:55:33;;;;;;;19.55;13.60;;;;;;;;;;5053452;28;20071;-62
2022/02/27 07:57:59;;;;;;;20.42;13.52;;;;;;;;;;5054588;28;20032;-60
2022/02/27 08:00:25;;;;;;;20.33;14.48;;;;;;;;;;5054251;28;20059;-62
2022/02/27 08:02:50;;;;;;;19.27;14.65;;;;;;;;;;5053951;28;20013;-62
2022/02/27 08:05:16;;;;;;;19.40;12.48;;;;;;;;;;5053930;28;20029;-62
2022/02/27 08:07:41;;;;;;;20.02;15.15;;;;;;;;;;5054119;28;20051;-63
2022/02/27 08:10:07;;;;;;;20.48;17.13;;;;;;;;;;5053939;28;20571;-62
2022/02/27 08:12:33;;;;;;;25.42;16.42;;;;;;;;;;5053953;28;20027;-62
2022/02/27 08:14:58;;;;;;;30.70;23.23;;;;;;;;;;5053966;28;20035;-62
2022/02/27 08:17:24;;;;;;;13.38;9.70;;;;;;;;;;5052504;28;20017;-61
2022/02/27 08:19:49;;;;;;;21.95;14.02;;;;;;;;;;5052351;28;20035;-62
2022/02/27 08:22:15;;;;;;;23.95;16.23;;;;;;;;;;5052595;28;20544;-62
2022/02/27 08:24:40;;;;;;;22.15;14.70;;;;;;;;;;5053670;28;20029;-62
2022/02/27 08:27:06;;;;;;;33.80;25.17;;;;;;;;;;5052882;28;20020;-61
2022/02/27 08:29:31;;;;;;;159.60;82.70;;;;;;;;;;5053891;28;20037;-62
2022/02/27 08:31:57;;;;;;;38.95;29.15;;;;;;;;;;5053649;28;20028;-61
2022/02/27 08:34:27;;;;;;;17.88;12.18;;;;;;;;;;5053929;28;20029;-61
2022/02/27 08:36:53;;;;;;;20.10;17.52;;;;;;;;;;5053496;28;20037;-62
2022/02/27 08:39:18;;;;;;;29.77;23.13;;;;;;;;;;5053163;28;20024;-62
2022/02/27 08:41:44;;;;;;;25.15;18.83;;;;;;;;;;5053447;28;20055;-61
2022/02/27 08:44:09;;;;;;;24.60;17.98;;;;;;;;;;5053359;28;20025;-62
2022/02/27 08:46:34;;;;;;;24.13;17.27;;;;;;;;;;5053569;28;20025;-62
2022/02/27 08:49:00;;;;;;;14.90;9.57;;;;;;;;;;5052587;28;20378;-62
2022/02/27 08:51:26;;;;;;;13.30;6.97;;;;;;;;;;5053294;28;20057;-62
2022/02/27 08:53:52;;;;;;;26.95;18.63;;;;;;;;;;5052001;28;20427;-62
2022/02/27 08:56:17;;;;;;;17.45;8.65;;;;;;;;;;5053516;28;20028;-62
2022/02/27 08:58:43;;;;;;;19.08;7.25;;;;;;;;;;5052638;28;20079;-62
2022/02/27 09:01:08;;;;;;;14.68;10.48;;;;;;;;;;5053390;28;20569;-62
2022/02/27 09:03:33;;;;;;;8.43;6.57;;;;;;;;;;5053196;28;20018;-62
2022/02/27 09:05:59;;;;;;;10.65;8.50;;;;;;;;;;5053348;28;20036;-62
2022/02/27 09:08:24;;;;;;;8.38;5.53;;;;;;;;;;5053382;28;20372;-62
2022/02/27 09:10:50;;;;;;;7.90;6.45;;;;;;;;;;5053318;28;20495;-62
2022/02/27 09:13:15;;;;;;;8.23;5.43;;;;;;;;;;5053041;28;20025;-62
2022/02/27 09:15:41;;;;;;;13.77;9.85;;;;;;;;;;5053071;28;20040;-62
2022/02/27 09:18:06;;;;;;;37.40;27.73;;;;;;;;;;5053110;28;20055;-62
2022/02/27 09:20:32;;;;;;;7.60;5.40;;;;;;;;;;5052908;28;20040;-62
2022/02/27 09:22:58;;;;;;;54.60;41.35;;;;;;;;;;5053130;28;20376;-62
2022/02/27 09:25:23;;;;;;;15.07;12.55;;;;;;;;;;5053414;28;20029;-62
2022/02/27 09:27:48;;;;;;;12.13;8.70;;;;;;;;;;5053017;28;20464;-62
2022/02/27 09:30:15;;;;;;;8.95;6.85;;;;;;;;;;5052840;28;20028;-62
2022/02/27 09:32:41;;;;;;;12.98;11.57;;;;;;;;;;5051669;28;20025;-61
2022/02/27 09:35:07;;;;;;;15.75;14.40;;;;;;;;;;5053237;28;20037;-62
2022/02/27 09:37:34;;;;;;;23.40;16.48;;;;;;;;;;5053136;28;20390;-62
2022/02/27 09:40:00;;;;;;;9.27;8.38;;;;;;;;;;5053095;28;20488;-62
2022/02/27 09:42:29;;;;;;;14.35;10.57;;;;;;;;;;5052818;28;20143;-62
2022/02/27 09:44:55;;;;;;;9.93;7.20;;;;;;;;;;5053223;28;20021;-62
2022/02/27 09:47:21;;;;;;;12.13;7.63;;;;;;;;;;5052933;28;20074;-62
2022/02/27 09:49:47;;;;;;;15.93;10.93;;;;;;;;;;5052519;28;20139;-62
2022/02/27 09:52:13;;;;;;;11.68;7.80;;;;;;;;;;5052846;28;20115;-62
2022/02/27 09:54:40;;;;;;;3.63;3.33;;;;;;;;;;5052709;28;20024;-62
2022/02/27 09:57:05;;;;;;;80.93;55.42;;;;;;;;;;5051297;28;20499;-62
2022/02/27 10:19:43;;;;;;;426.05;194.02;;;;;;;;;;5056583;28;20044;-62
2022/02/27 10:22:09;;;;;;;111.78;86.00;;;;;;;;;;5056410;28;20021;-62
2022/02/27 10:24:36;;;;;;;29.20;23.40;;;;;;;;;;5056040;28;20010;-62
2022/02/27 10:27:08;;;;;;;1042.63;458.65;;;;;;;;;;5056097;28;20036;-62
2022/02/27 10:29:35;;;;;;;1255.28;473.83;;;;;;;;;;5056012;28;20025;-63
2022/02/27 10:32:02;;;;;;;1376.88;501.67;;;;;;;;;;5054545;28;20451;-62
2022/02/27 10:34:29;;;;;;;369.88;119.35;;;;;;;;;;5056022;28;20104;-62
2022/02/27 10:37:01;;;;;;;91.55;31.20;;;;;;;;;;5055502;28;20014;-62
2022/02/27 10:39:43;;;;;;;13.68;7.72;;;;;;;;;;5055565;28;20029;-62
2022/02/27 10:42:15;;;;;;;1258.85;443.50;;;;;;;;;;5054673;28;20033;-61
2022/02/27 10:44:42;;;;;;;14.80;10.70;;;;;;;;;;5056065;28;20112;-61
2022/02/27 10:47:11;;;;;;;4.00;3.50;;;;;;;;;;5055975;28;20112;-62
2022/02/27 10:49:38;;;;;;;7.07;6.38;;;;;;;;;;5055314;28;20051;-62
2022/02/27 10:52:14;;;;;;;5.70;5.00;;;;;;;;;;5057852;28;20032;-62
2022/02/27 10:54:41;;;;;;;38.38;24.25;;;;;;;;;;5059232;28;20061;-68
2022/02/27 10:57:09;;;;;;;382.27;129.23;;;;;;;;;;5064923;28;20032;-68
2022/02/27 10:59:36;;;;;;;93.00;56.20;;;;;;;;;;5074791;28;20032;-68
2022/02/27 11:02:02;;;;;;;32.72;22.00;;;;;;;;;;5075340;28;20444;-68
2022/02/27 11:04:28;;;;;;;669.63;361.15;;;;;;;;;;5057384;28;20032;-68
2022/02/27 11:06:54;;;;;;;351.60;179.20;;;;;;;;;;5075037;28;20070;-68
2022/02/27 11:09:20;;;;;;;106.22;69.78;;;;;;;;;;5074998;28;20020;-68
2022/02/27 11:11:46;;;;;;;94.93;59.05;;;;;;;;;;5075050;28;20058;-68
2022/02/27 11:14:11;;;;;;;27.30;16.52;;;;;;;;;;5075277;28;20042;-68
2022/02/27 11:16:36;;;;;;;54.38;38.15;;;;;;;;;;5075027;28;20016;-68
2022/02/27 11:19:02;;;;;;;83.88;44.35;;;;;;;;;;5075028;28;20586;-67
2022/02/27 11:21:27;;;;;;;121.05;72.05;;;;;;;;;;5073901;28;20020;-67
2022/02/27 11:23:53;;;;;;;30.35;21.10;;;;;;;;;;5075061;28;20114;-67
2022/02/27 11:26:19;;;;;;;144.73;87.05;;;;;;;;;;5075158;28;20025;-67
2022/02/27 11:28:44;;;;;;;139.57;84.40;;;;;;;;;;5074939;28;20167;-67
2022/02/27 11:31:12;;;;;;;12.45;11.15;;;;;;;;;;5074696;28;20035;-67
2022/02/27 11:33:38;;;;;;;57.92;35.65;;;;;;;;;;5074660;28;20028;-68
2022/02/27 11:36:17;;;;;;;42.65;25.50;;;;;;;;;;5074659;28;20028;-67
2022/02/27 11:38:43;;;;;;;9.52;4.18;;;;;;;;;;5074787;28;20530;-67
2022/02/27 11:41:14;;;;;;;16.52;14.93;;;;;;;;;;5073455;28;20051;-68
2022/02/27 11:43:46;;;;;;;14.15;12.57;;;;;;;;;;5074481;28;20060;-68
2022/02/27 11:46:15;;;;;;;25.67;18.27;;;;;;;;;;5074452;28;20078;-67
2022/02/27 11:48:56;;;;;;;54.90;38.63;;;;;;;;;;5074038;28;20040;-67
2022/02/27 11:51:37;;;;;;;32.85;23.10;;;;;;;;;;5074283;28;20527;-68
2022/02/27 11:54:02;;;;;;;;;;;;;;;;;;5073551;28;20060;-68
2022/02/27 11:56:28;;;;;;;135.60;99.75;;;;;;;;;;5074207;28;19939;-68
2022/02/27 11:58:53;;;;;;;267.17;158.43;;;;;;;;;;5074173;28;20040;-68
2022/02/27 12:01:34;;;;;;;90.80;32.72;;;;;;;;;;5072743;28;20028;-68
2022/02/27 12:04:18;;;;;;;24.98;11.00;;;;;;;;;;5074303;28;20064;-68
2022/02/27 12:07:04;;;;;;;154.63;49.22;;;;;;;;;;5074040;28;20032;-68
2022/02/27 12:09:48;;;;;;;11.77;7.10;;;;;;;;;;5074312;28;20032;-68
2022/02/27 12:12:41;;;;;;;3.72;3.42;;;;;;;;;;5074145;28;20036;-68
2022/02/27 12:15:21;;;;;;;64.03;25.70;;;;;;;;;;5074237;28;20453;-67
2022/02/27 12:17:53;;;;;;;9.80;5.28;;;;;;;;;;5072193;28;20027;-67
2022/02/27 12:20:36;;;;;;;17.63;8.35;;;;;;;;;;5072768;28;20046;-68
2022/02/27 12:23:02;;;;;;;20.85;11.15;;;;;;;;;;5074002;28;20043;-67
2022/02/27 12:25:35;;;;;;;23.27;12.05;;;;;;;;;;5073880;28;20441;-67
2022/02/27 12:28:00;;;;;;;19.35;9.40;;;;;;;;;;5073935;28;20024;-67
2022/02/27 12:30:26;;;;;;;16.23;9.25;;;;;;;;;;5073838;28;20021;-67
2022/02/27 12:32:54;;;;;;;13.85;8.52;;;;;;;;;;5073098;28;20024;-67
2022/02/27 12:35:20;;;;;;;14.73;8.82;;;;;;;;;;5073479;28;20120;-67
2022/02/27 12:37:46;;;;;;;6.93;4.90;;;;;;;;;;5072395;28;20119;-67
2022/02/27 12:40:11;;;;;;;7.75;5.20;;;;;;;;;;5073697;28;20035;-67
2022/02/27 12:42:37;;;;;;;6.28;4.20;;;;;;;;;;5073575;28;20074;-67
2022/02/27 12:45:02;;;;;;;5.30;4.25;;;;;;;;;;5073604;28;20085;-67
2022/02/27 12:47:28;;;;;;;5.25;4.47;;;;;;;;;;5073700;28;20024;-67
2022/02/27 12:52:41;;;;;;;27.88;20.23;;;;;;;;;;5073733;28;20037;-67
2022/02/27 12:55:08;;;;;;;18.13;11.77;;;;;;;;;;5073555;28;20123;-67
2022/02/27 12:57:39;;;;;;;9.95;7.20;;;;;;;;;;5073246;28;20123;-67
2022/02/27 13:00:05;;;;;;;15.30;11.80;;;;;;;;;;5073309;28;20484;-67
2022/02/27 13:02:30;;;;;;;12.23;9.93;;;;;;;;;;5073400;28;20025;-67
2022/02/27 13:04:57;;;;;;;5.30;4.80;;;;;;;;;;5073494;28;20074;-67
2022/02/27 13:07:24;;;;;;;9.55;7.15;;;;;;;;;;5073678;28;20028;-67
2022/02/27 13:09:49;;;;;;;8.98;5.18;;;;;;;;;;5073410;28;20036;-67
2022/02/27 13:12:15;;;;;;;9.10;7.45;;;;;;;;;;5073053;28;20032;-67
2022/02/27 13:14:43;;;;;;;25.40;15.60;;;;;;;;;;5073173;28;20036;-67
2022/02/27 13:17:10;;;;;;;13.98;8.95;;;;;;;;;;5072011;28;20407;-67
2022/02/27 13:19:36;;;;;;;13.85;6.70;;;;;;;;;;5073472;28;20392;-67
2022/02/27 13:22:03;;;;;;;2.92;2.55;;;;;;;;;;5073365;28;20531;-67
2022/02/27 13:24:33;;;;;;;2.60;2.40;;;;;;;;;;5073180;28;20024;-67
2022/02/27 13:27:02;;;;;;;6.95;5.28;;;;;;;;;;5073334;28;20056;-67
2022/02/27 13:29:28;;;;;;;5.72;5.03;;;;;;;;;;5073115;28;20465;-67
2022/02/27 13:31:54;;;;;;;5.35;4.68;;;;;;;;;;5073010;28;20055;-67
2022/02/27 13:34:20;;;;;;;11.13;5.65;;;;;;;;;;5073073;28;20020;-67
2022/02/27 13:36:45;;;;;;;17.02;10.63;;;;;;;;;;5073036;28;20064;-68
2022/02/27 13:39:11;;;;;;;23.75;13.77;;;;;;;;;;5072728;28;20070;-68
2022/02/27 13:41:37;;;;;;;16.20;10.35;;;;;;;;;;5071730;28;20036;-68
2022/02/27 13:44:03;;;;;;;98.38;51.15;;;;;;;;;;5072927;28;20020;-67
2022/02/27 13:46:28;;;;;;;116.88;58.65;;;;;;;;;;5076593;28;20041;-67
2022/02/27 13:49:07;;;;;;;32.00;17.33;;;;;;;;;;5076182;28;20051;-67
2022/02/27 13:51:32;;;;;;;58.30;34.58;;;;;;;;;;5076468;28;20028;-67
2022/02/27 13:54:14;;;;;;;50.13;30.00;;;;;;;;;;5076409;28;20044;-66
2022/02/27 13:56:39;;;;;;;896.78;328.13;;;;;;;;;;5076659;28;20033;-66
2022/02/27 13:59:15;;;;;;;329.05;100.18;;;;;;;;;;5076720;28;20449;-67
2022/02/27 14:01:41;;;;;;;758.65;275.92;;;;;;;;;;5076490;28;20086;-67
2022/02/27 14:04:06;;;;;;;795.88;276.35;;;;;;;;;;5076471;28;20020;-66
2022/02/27 14:06:33;;;;;;;60.45;25.75;;;;;;;;;;5075326;28;20029;-66
2022/02/27 14:08:59;;;;;;;109.47;35.13;;;;;;;;;;5076375;28;20381;-65
2022/02/27 14:11:26;;;;;;;360.13;106.45;;;;;;;;;;5076318;28;20028;-67
2022/02/27 14:13:52;;;;;;;750.67;257.80;;;;;;;;;;5076365;28;20479;-66
2022/02/27 14:16:22;;;;;;;1078.57;350.58;;;;;;;;;;5076164;28;20029;-66
2022/02/27 14:18:47;;;;;;;934.35;338.30;;;;;;;;;;5076211;28;20021;-66
2022/02/27 14:21:19;;;;;;;385.83;147.35;;;;;;;;;;5076007;28;20107;-66
2022/02/27 14:24:03;;;;;;;82.97;33.38;;;;;;;;;;5076136;28;20031;-66
2022/02/27 14:26:31;;;;;;;792.13;262.92;;;;;;;;;;5076211;28;20033;-66
2022/02/27 14:28:57;;;;;;;738.33;264.05;;;;;;;;;;5076279;28;20016;-66
2022/02/27 14:31:33;;;;;;;159.52;64.07;;;;;;;;;;5074849;28;20041;-66
2022/02/27 14:34:00;;;;;;;716.58;275.50;;;;;;;;;;5076266;28;20063;-66
2022/02/27 14:36:25;;;;;;;503.70;194.18;;;;;;;;;;5075858;28;20056;-66
2022/02/27 14:38:52;;;;;;;130.65;64.22;;;;;;;;;;5076021;28;20107;-66